Blue Galaxy — SWDA — position and weather

sailwx.info

Track history (hours):
 
Tides and Currents Weather Stations Pressure Air Temp Water Temp Dewpoint Dewpoint Depression Visibility Wind Speed Wind Dir Waves Ship Positions

Blue Galaxy

Last reported at 2016-May-05 00:33 UTC. Time now 2016-May-05 00:56 UTC.
Position N 37°14' E 023°51'.

Length 192 m; draft 6.7 m.

Type: Passenger vessel. MMSI: 239672000.

Date/timePositionNaut miles runAvg speedWind from/ knotsBaromVisibWave heightAir tempDewpointWater temp
2016-May-05 00:33N 37°14' E 023°51'6 0.2
2016-May-03 21:23N 37°20' E 023°48'1619.8
2016-May-03 20:33N 37°36' E 023°43'1919.2
2016-May-03 19:33N 37°54' E 023°37'3 2.9
2016-May-03 18:33N 37°57' E 023°38'0 0.0
2016-May-03 17:33N 37°57' E 023°38'0 0.0
2016-May-03 16:33N 37°57' E 023°38'0 0.0
2016-May-03 15:34N 37°57' E 023°38'2 1.6
2016-May-03 14:33N 37°56' E 023°37'2020.1
2016-May-03 13:33N 37°37' E 023°46'22 1.3
2016-May-02 20:33N 37°15' E 023°49'1919.0
2016-May-02 19:33N 37°34' E 023°44'1919.0
2016-May-02 18:33N 37°52' E 023°36'5 5.4
2016-May-02 17:33N 37°57' E 023°38'0 0.0
2016-May-02 16:33N 37°57' E 023°38'0 0.0
2016-May-02 15:33N 37°57' E 023°38'0 0.0
2016-May-02 14:33N 37°57' E 023°38'0 0.0
2016-May-02 13:33N 37°57' E 023°38'0 0.0
2016-May-02 05:33N 37°57' E 023°38'0 0.0
2016-May-02 04:34N 37°57' E 023°38'0 0.0
2016-May-02 03:33N 37°57' E 023°38'0 0.0
2016-May-02 02:34N 37°57' E 023°38'0 0.0
2016-May-02 01:33N 37°57' E 023°38'0 0.0
2016-May-02 00:34N 37°57' E 023°38'0 0.0
2016-May-01 23:34N 37°57' E 023°38'0 0.0
2016-May-01 22:33N 37°57' E 023°38'0 0.0
2016-May-01 21:33N 37°57' E 023°38'0 0.0
2016-May-01 20:34N 37°57' E 023°38'0 0.0
2016-May-01 19:33N 37°57' E 023°38'0 0.0
2016-May-01 18:34N 37°57' E 023°38'0 0.0
2016-May-01 17:33N 37°57' E 023°38'0 0.0
2016-May-01 16:33N 37°57' E 023°38'0 0.0
2016-May-01 15:33N 37°57' E 023°38'0 0.0
2016-May-01 14:34N 37°57' E 023°38'0 0.0
2016-May-01 13:33N 37°57' E 023°38'0 0.0
2016-May-01 12:34N 37°57' E 023°38'0 0.0
2016-May-01 11:33N 37°57' E 023°38'0 0.0
2016-May-01 10:34N 37°57' E 023°38'0 0.0
2016-May-01 09:34N 37°57' E 023°38'0 0.0
2016-May-01 08:33N 37°57' E 023°38'0 0.0
2016-May-01 07:34N 37°57' E 023°38'0 0.0
2016-May-01 06:34N 37°57' E 023°38'0 0.0
2016-May-01 05:34N 37°57' E 023°38'0 0.0
2016-May-01 04:34N 37°57' E 023°38'0 0.0
2016-May-01 03:33N 37°57' E 023°38'0 0.0
2016-May-01 02:34N 37°57' E 023°38'0 0.0
2016-May-01 01:33N 37°57' E 023°38'0 0.0
2016-May-01 00:34N 37°57' E 023°38'0 0.0
2016-Apr-30 23:34N 37°57' E 023°38'0 0.0
2016-Apr-30 22:33N 37°57' E 023°38'0 0.0
2016-Apr-30 21:34N 37°57' E 023°38'0 0.0
2016-Apr-30 20:34N 37°57' E 023°38'0 0.0
2016-Apr-30 19:34N 37°57' E 023°38'0 0.0
2016-Apr-30 18:34N 37°57' E 023°38'0 0.0
2016-Apr-30 17:34N 37°57' E 023°38'0 0.0
2016-Apr-30 16:34N 37°57' E 023°38'0 0.0
2016-Apr-30 15:34N 37°57' E 023°38'0 0.0
2016-Apr-30 14:34N 37°57' E 023°38'0 0.0
2016-Apr-30 13:33N 37°57' E 023°38'0 0.0
2016-Apr-30 12:33N 37°57' E 023°38'0 0.0
2016-Apr-30 11:34N 37°57' E 023°38'0 0.0
2016-Apr-30 10:33N 37°57' E 023°38'0 0.0
2016-Apr-30 09:34N 37°57' E 023°38'0 0.0
2016-Apr-30 08:33N 37°57' E 023°38'0 0.0
2016-Apr-30 07:34N 37°57' E 023°38'0 0.0
2016-Apr-30 06:33N 37°57' E 023°38'0 0.0
2016-Apr-30 05:34N 37°57' E 023°38'0 0.0
2016-Apr-30 04:34N 37°57' E 023°38'0 0.0
2016-Apr-30 03:33N 37°57' E 023°38'0 0.4
2016-Apr-30 02:34N 37°56' E 023°38'1716.7
2016-Apr-30 01:33N 37°41' E 023°46'1918.6
2016-Apr-30 00:33N 37°22' E 023°50'2718.7
2016-Apr-29 23:06N 36°56' E 023°55'1018.9
2016-Apr-29 22:33N 36°45' E 023°57'42 1.9
2016-Apr-29 01:09N 36°05' E 024°06'1219.2
2016-Apr-29 00:33N 36°16' E 024°03'2919.5
2016-Apr-28 23:05N 36°44' E 023°57'1019.7
2016-Apr-28 22:33N 36°54' E 023°55'2019.7
2016-Apr-28 21:33N 37°14' E 023°50'2019.5
2016-Apr-28 20:33N 37°33' E 023°44'1919.0
2016-Apr-28 19:33N 37°51' E 023°37'6 6.1
2016-Apr-28 18:34N 37°57' E 023°38'0 0.0
2016-Apr-28 17:33N 37°57' E 023°38'0 0.0
2016-Apr-28 16:34N 37°57' E 023°38'0 0.0
2016-Apr-28 15:33N 37°57' E 023°38'1010.3
2016-Apr-28 14:34N 37°47' E 023°42'2019.7
2016-Apr-28 13:34N 37°28' E 023°48'2019.6
2016-Apr-28 12:34N 37°09' E 023°53'10 0.7
2016-Apr-27 22:33N 36°58' E 023°54'2120.6
2016-Apr-27 21:33N 37°18' E 023°48'2020.3
2016-Apr-27 20:33N 37°38' E 023°43'1918.5
2016-Apr-27 19:34N 37°56' E 023°37'1 0.7
2016-Apr-27 18:33N 37°57' E 023°38'0 0.0
2016-Apr-27 17:33N 37°57' E 023°38'0 0.0
2016-Apr-27 16:33N 37°57' E 023°38'0 0.0
2016-Apr-27 15:33N 37°57' E 023°38'7 7.0
2016-Apr-27 14:34N 37°50' E 023°40'2019.9
2016-Apr-27 13:33N 37°31' E 023°48'8 0.5
2016-Apr-26 21:06N 37°22' E 023°47'1220.7
2016-Apr-26 20:33N 37°33' E 023°44'2020.0
2016-Apr-26 19:33N 37°52' E 023°37'4 4.3
2016-Apr-26 18:34N 37°57' E 023°38'0 0.0
2016-Apr-26 17:34N 37°57' E 023°38'0 0.0
2016-Apr-26 16:34N 37°57' E 023°38'0 0.0
2016-Apr-26 15:34N 37°57' E 023°38'0 0.0
2016-Apr-26 14:33N 37°57' E 023°38'7 6.9
2016-Apr-26 13:34N 37°50' E 023°35'2 1.6
2016-Apr-26 12:34N 37°50' E 023°33'2 2.0
2016-Apr-26 11:34N 37°51' E 023°32'0 0.1
2016-Apr-26 10:33N 37°52' E 023°32'0 0.3
2016-Apr-26 09:34N 37°52' E 023°32'7 6.8
2016-Apr-26 08:33N 37°56' E 023°38'0 0.4
2016-Apr-26 07:34N 37°57' E 023°38'0 0.0
2016-Apr-26 06:34N 37°57' E 023°38'0 0.0
2016-Apr-26 05:34N 37°57' E 023°38'0 0.0
2016-Apr-26 04:34N 37°57' E 023°38'0 0.0
2016-Apr-26 03:34N 37°57' E 023°38'5 5.5
2016-Apr-26 02:34N 37°51' E 023°40'1919.3
2016-Apr-26 01:33N 37°33' E 023°47'2019.8
2016-Apr-26 00:33N 37°14' E 023°52'  
Track history (hours):
 
Tides and Currents Weather Stations Pressure Air Temp Water Temp Dewpoint Dewpoint Depression Visibility Wind Speed Wind Dir Waves Ship Positions

Blue Galaxy

Last reported at 2016-May-05 00:33 UTC. Time now 2016-May-05 00:56 UTC.
Position N 37°14' E 023°51'.

Length 192 m; draft 6.7 m.

Type: Passenger vessel. MMSI: 239672000.

Date/timePositionNaut miles runAvg speedWind from/ knotsBaromVisibWave heightAir tempDewpointWater temp
2016-May-05 00:33N 37°14' E 023°51'6 0.2
2016-May-03 21:23N 37°20' E 023°48'1619.8
2016-May-03 20:33N 37°36' E 023°43'1919.2
2016-May-03 19:33N 37°54' E 023°37'3 2.9
2016-May-03 18:33N 37°57' E 023°38'0 0.0
2016-May-03 17:33N 37°57' E 023°38'0 0.0
2016-May-03 16:33N 37°57' E 023°38'0 0.0
2016-May-03 15:34N 37°57' E 023°38'2 1.6
2016-May-03 14:33N 37°56' E 023°37'2020.1
2016-May-03 13:33N 37°37' E 023°46'22 1.3
2016-May-02 20:33N 37°15' E 023°49'1919.0
2016-May-02 19:33N 37°34' E 023°44'1919.0
2016-May-02 18:33N 37°52' E 023°36'5 5.4
2016-May-02 17:33N 37°57' E 023°38'0 0.0
2016-May-02 16:33N 37°57' E 023°38'0 0.0
2016-May-02 15:33N 37°57' E 023°38'0 0.0
2016-May-02 14:33N 37°57' E 023°38'0 0.0
2016-May-02 13:33N 37°57' E 023°38'0 0.0
2016-May-02 05:33N 37°57' E 023°38'0 0.0
2016-May-02 04:34N 37°57' E 023°38'0 0.0
2016-May-02 03:33N 37°57' E 023°38'0 0.0
2016-May-02 02:34N 37°57' E 023°38'0 0.0
2016-May-02 01:33N 37°57' E 023°38'0 0.0
2016-May-02 00:34N 37°57' E 023°38'0 0.0
2016-May-01 23:34N 37°57' E 023°38'0 0.0
2016-May-01 22:33N 37°57' E 023°38'0 0.0
2016-May-01 21:33N 37°57' E 023°38'0 0.0
2016-May-01 20:34N 37°57' E 023°38'0 0.0
2016-May-01 19:33N 37°57' E 023°38'0 0.0
2016-May-01 18:34N 37°57' E 023°38'0 0.0
2016-May-01 17:33N 37°57' E 023°38'0 0.0
2016-May-01 16:33N 37°57' E 023°38'0 0.0
2016-May-01 15:33N 37°57' E 023°38'0 0.0
2016-May-01 14:34N 37°57' E 023°38'0 0.0
2016-May-01 13:33N 37°57' E 023°38'0 0.0
2016-May-01 12:34N 37°57' E 023°38'0 0.0
2016-May-01 11:33N 37°57' E 023°38'0 0.0
2016-May-01 10:34N 37°57' E 023°38'0 0.0
2016-May-01 09:34N 37°57' E 023°38'0 0.0
2016-May-01 08:33N 37°57' E 023°38'0 0.0
2016-May-01 07:34N 37°57' E 023°38'0 0.0
2016-May-01 06:34N 37°57' E 023°38'0 0.0
2016-May-01 05:34N 37°57' E 023°38'0 0.0
2016-May-01 04:34N 37°57' E 023°38'0 0.0
2016-May-01 03:33N 37°57' E 023°38'0 0.0
2016-May-01 02:34N 37°57' E 023°38'0 0.0
2016-May-01 01:33N 37°57' E 023°38'0 0.0
2016-May-01 00:34N 37°57' E 023°38'0 0.0
2016-Apr-30 23:34N 37°57' E 023°38'0 0.0
2016-Apr-30 22:33N 37°57' E 023°38'0 0.0
2016-Apr-30 21:34N 37°57' E 023°38'0 0.0
2016-Apr-30 20:34N 37°57' E 023°38'0 0.0
2016-Apr-30 19:34N 37°57' E 023°38'0 0.0
2016-Apr-30 18:34N 37°57' E 023°38'0 0.0
2016-Apr-30 17:34N 37°57' E 023°38'0 0.0
2016-Apr-30 16:34N 37°57' E 023°38'0 0.0
2016-Apr-30 15:34N 37°57' E 023°38'0 0.0
2016-Apr-30 14:34N 37°57' E 023°38'0 0.0
2016-Apr-30 13:33N 37°57' E 023°38'0 0.0
2016-Apr-30 12:33N 37°57' E 023°38'0 0.0
2016-Apr-30 11:34N 37°57' E 023°38'0 0.0
2016-Apr-30 10:33N 37°57' E 023°38'0 0.0
2016-Apr-30 09:34N 37°57' E 023°38'0 0.0
2016-Apr-30 08:33N 37°57' E 023°38'0 0.0
2016-Apr-30 07:34N 37°57' E 023°38'0 0.0
2016-Apr-30 06:33N 37°57' E 023°38'0 0.0
2016-Apr-30 05:34N 37°57' E 023°38'0 0.0
2016-Apr-30 04:34N 37°57' E 023°38'0 0.0
2016-Apr-30 03:33N 37°57' E 023°38'0 0.4
2016-Apr-30 02:34N 37°56' E 023°38'1716.7
2016-Apr-30 01:33N 37°41' E 023°46'1918.6
2016-Apr-30 00:33N 37°22' E 023°50'2718.7
2016-Apr-29 23:06N 36°56' E 023°55'1018.9
2016-Apr-29 22:33N 36°45' E 023°57'42 1.9
2016-Apr-29 01:09N 36°05' E 024°06'1219.2
2016-Apr-29 00:33N 36°16' E 024°03'2919.5
2016-Apr-28 23:05N 36°44' E 023°57'1019.7
2016-Apr-28 22:33N 36°54' E 023°55'2019.7
2016-Apr-28 21:33N 37°14' E 023°50'2019.5
2016-Apr-28 20:33N 37°33' E 023°44'1919.0
2016-Apr-28 19:33N 37°51' E 023°37'6 6.1
2016-Apr-28 18:34N 37°57' E 023°38'0 0.0
2016-Apr-28 17:33N 37°57' E 023°38'0 0.0
2016-Apr-28 16:34N 37°57' E 023°38'0 0.0
2016-Apr-28 15:33N 37°57' E 023°38'1010.3
2016-Apr-28 14:34N 37°47' E 023°42'2019.7
2016-Apr-28 13:34N 37°28' E 023°48'2019.6
2016-Apr-28 12:34N 37°09' E 023°53'10 0.7
2016-Apr-27 22:33N 36°58' E 023°54'2120.6
2016-Apr-27 21:33N 37°18' E 023°48'2020.3
2016-Apr-27 20:33N 37°38' E 023°43'1918.5
2016-Apr-27 19:34N 37°56' E 023°37'1 0.7
2016-Apr-27 18:33N 37°57' E 023°38'0 0.0
2016-Apr-27 17:33N 37°57' E 023°38'0 0.0
2016-Apr-27 16:33N 37°57' E 023°38'0 0.0
2016-Apr-27 15:33N 37°57' E 023°38'7 7.0
2016-Apr-27 14:34N 37°50' E 023°40'2019.9
2016-Apr-27 13:33N 37°31' E 023°48'8 0.5
2016-Apr-26 21:06N 37°22' E 023°47'1220.7
2016-Apr-26 20:33N 37°33' E 023°44'2020.0
2016-Apr-26 19:33N 37°52' E 023°37'4 4.3
2016-Apr-26 18:34N 37°57' E 023°38'0 0.0
2016-Apr-26 17:34N 37°57' E 023°38'0 0.0
2016-Apr-26 16:34N 37°57' E 023°38'0 0.0
2016-Apr-26 15:34N 37°57' E 023°38'0 0.0
2016-Apr-26 14:33N 37°57' E 023°38'7 6.9
2016-Apr-26 13:34N 37°50' E 023°35'2 1.6
2016-Apr-26 12:34N 37°50' E 023°33'2 2.0
2016-Apr-26 11:34N 37°51' E 023°32'0 0.1
2016-Apr-26 10:33N 37°52' E 023°32'0 0.3
2016-Apr-26 09:34N 37°52' E 023°32'7 6.8
2016-Apr-26 08:33N 37°56' E 023°38'0 0.4
2016-Apr-26 07:34N 37°57' E 023°38'0 0.0
2016-Apr-26 06:34N 37°57' E 023°38'0 0.0
2016-Apr-26 05:34N 37°57' E 023°38'0 0.0
2016-Apr-26 04:34N 37°57' E 023°38'0 0.0
2016-Apr-26 03:34N 37°57' E 023°38'5 5.5
2016-Apr-26 02:34N 37°51' E 023°40'1919.3
2016-Apr-26 01:33N 37°33' E 023°47'2019.8
2016-Apr-26 00:33N 37°14' E 023°52'  

Dump ship's entire track history